Redlands, CA (92373)

09:08 PDT le 24 octobre 2014 (GMT -0700)
Redlands High School-Terriers | Change Station
CLOSE
Current Station
Stations météorologiques personnelles
Location: Redlands, CA
Altitude: 1505 ft
Stations météo à proximité

Alt. 1505 ft 34.05 °N, 117.17 °W | Updated 3 seconds ago

Ciel dégagé
Ciel dégagé
74.6 ° F
Paraît 77 ° F
N
0.0
Vent Variable Vent de Nord
Gusts 0.0 mph

Aujourd'hui
Haut(e) -- | Bas -- ° F
--% Risque de précip.
Hier
Haut(e) -- | Bas -- ° F
Precip. -- pouce
7:01 AM 6:03 PM
Nouvelle lune, 1% visible
Pression 30.04 pouce
Visibilité 10.0 Miles terrestres
Nuages Ciel dégagé
indice de chaleur 77 ° F
Point de rosée 44 ° F
Humidité 34%
Précipitations 0.00 pouce
Profondeur de la couche neigeuse Non disponible.
UV 0.0 sur 12
Pollen 4.10 sur 12
Qualité de l'air Non disponible.
Flu Activity Sporadic
METAR KSBD 241551Z 00000KT 10SM SKC 19/00 A3004

More Conditions Fewer Conditions

Pression 30.04 pouce
Visibilité 10.0 Miles terrestres
Nuages Ciel dégagé
indice de chaleur 77 ° F
Point de rosée 44 ° F
Humidité 34%
Précipitations 0.00 pouce
Profondeur de la couche neigeuse Non disponible.
UV 0.0 sur 12
Pollen 4.10 sur 12
Qualité de l'air Non disponible.
Flu Activity Sporadic
METAR KSBD 241551Z 00000KT 10SM SKC 19/00 A3004

More Conditions Fewer Conditions

10-Day Weather Forecast

Almanac

Astronomie

Oct. 24, 2014 Lever Coucher
Temps réel 07:01 PDT 18:03 PDT
Crépuscule civil 06:35 PDT 18:29 PDT
Crépuscule nautique 06:06 PDT 18:58 PDT
Crépuscule astronomique 05:37 PDT 19:27 PDT
Lune 07:43 PDT 18:49 PDT
Durée de lumière visible 11h 53m
Longueur du jour
11h 02m
Tomorrow will be 1m 57s shorter.
Nouvelle lune, 1% of the Moon is Illuminated
Aujourd'hui
Nouvelle lune
Oct 30
Premier quartier
Nov 6
Pleine lune
Nov 14
Dernier quartier
Nov 22
Nouveau

Extrêmes aujourd'hui

State Highs State Lows

Community

WunderPhotos

Upload Photos

1,764,597 Photos téléchargées !

WunderBlogs® & News

Nearby

Qualité de l'air

  Qualité de l'air Indice de la qualité de l'air Polluant
Hier Bon
OZONE
vendredi Bon
PM10
vendredi Moyen
OZONE
vendredi Bon
CO
vendredi Bon
NO2

Épaisseur de neige

Station Depth Altitude
Virginia Lakes Ridge 0 in 9200 ft
Leavitt Lake 1 in 9400 ft
Leavitt Meadows 1 in 7200 ft
Sonora Pass 0 in 8800 ft
Summit Meadow 1 in 9122 ft

Activité sismique

Ville Distance Mag. Time & Date
Brea, California 42 Miles terrestres 2.9 15:35 PDT
2014-10-23
Brea, California 41 Miles terrestres 2.8 15:34 PDT
2014-10-23
Corona, California 30 Miles terrestres 2.5 13:09 PDT
2014-10-23
Delta, Mexico 157 Miles terrestres 2.5 20:53 PDT
2014-10-21
Minimum magnitude displayed is 2.5.

Températures des eaux côtières

Lieu Température
Aucun rapport de station

Stations météo à proximité